sensor_id;sensor_type;location;lat;lon;timestamp;pressure;altitude;pressure_sealevel;temperature;humidity
73501;BME280;61721;42.206;25.320;2023-01-10T00:00:24;99297.47;;;5.61;87.30
73501;BME280;61721;42.206;25.320;2023-01-10T00:02:53;99296.75;;;5.48;87.92
73501;BME280;61721;42.206;25.320;2023-01-10T00:05:21;99294.81;;;5.72;87.25
73501;BME280;61721;42.206;25.320;2023-01-10T00:07:48;99292.03;;;5.51;87.49
73501;BME280;61721;42.206;25.320;2023-01-10T00:10:17;99285.72;;;5.86;87.33
73501;BME280;61721;42.206;25.320;2023-01-10T00:12:44;99284.41;;;5.69;86.44
73501;BME280;61721;42.206;25.320;2023-01-10T00:15:43;99290.97;;;5.98;85.59
73501;BME280;61721;42.206;25.320;2023-01-10T00:18:10;99287.06;;;6.03;85.95
73501;BME280;61721;42.206;25.320;2023-01-10T00:20:38;99295.72;;;6.27;84.97
73501;BME280;61721;42.206;25.320;2023-01-10T00:23:05;99306.16;;;5.96;85.50
73501;BME280;61721;42.206;25.320;2023-01-10T00:25:34;99301.47;;;6.43;84.78
73501;BME280;61721;42.206;25.320;2023-01-10T00:28:01;99302.47;;;6.31;84.13
73501;BME280;61721;42.206;25.320;2023-01-10T00:30:37;99294.41;;;6.21;84.10
73501;BME280;61721;42.206;25.320;2023-01-10T00:33:04;99296.16;;;6.43;83.75
73501;BME280;61721;42.206;25.320;2023-01-10T00:35:32;99297.06;;;6.10;84.37
73501;BME280;61721;42.206;25.320;2023-01-10T00:38:00;99293.06;;;6.16;85.27
73501;BME280;61721;42.206;25.320;2023-01-10T00:40:30;99293.34;;;6.13;84.88
73501;BME280;61721;42.206;25.320;2023-01-10T00:42:59;99284.88;;;5.85;86.63
73501;BME280;61721;42.206;25.320;2023-01-10T00:45:44;99283.34;;;6.37;85.09
73501;BME280;61721;42.206;25.320;2023-01-10T00:48:12;99283.38;;;6.26;84.98
73501;BME280;61721;42.206;25.320;2023-01-10T00:50:39;99275.34;;;6.48;83.13
73501;BME280;61721;42.206;25.320;2023-01-10T00:53:06;99275.13;;;6.40;83.38
73501;BME280;61721;42.206;25.320;2023-01-10T00:55:34;99265.13;;;5.89;85.89
73501;BME280;61721;42.206;25.320;2023-01-10T00:58:03;99258.25;;;6.30;84.39
73501;BME280;61721;42.206;25.320;2023-01-10T01:00:30;99255.03;;;6.15;85.03
73501;BME280;61721;42.206;25.320;2023-01-10T01:02:58;99242.56;;;6.27;85.71
73501;BME280;61721;42.206;25.320;2023-01-10T01:05:25;99243.84;;;6.43;84.79
73501;BME280;61721;42.206;25.320;2023-01-10T01:07:52;99235.09;;;6.21;85.09
73501;BME280;61721;42.206;25.320;2023-01-10T01:10:19;99224.34;;;6.22;85.56
73501;BME280;61721;42.206;25.320;2023-01-10T01:12:52;99236.16;;;6.29;84.16
73501;BME280;61721;42.206;25.320;2023-01-10T01:15:21;99230.81;;;6.61;82.97
73501;BME280;61721;42.206;25.320;2023-01-10T01:17:48;99231.03;;;6.69;83.29
73501;BME280;61721;42.206;25.320;2023-01-10T01:20:16;99226.63;;;6.59;83.48
73501;BME280;61721;42.206;25.320;2023-01-10T01:22:43;99218.69;;;6.68;82.74
73501;BME280;61721;42.206;25.320;2023-01-10T01:25:10;99203.97;;;6.12;84.85
73501;BME280;61721;42.206;25.320;2023-01-10T01:27:37;99213.97;;;5.87;86.24
73501;BME280;61721;42.206;25.320;2023-01-10T01:30:06;99194.88;;;5.82;86.82
73501;BME280;61721;42.206;25.320;2023-01-10T01:32:35;99194.53;;;6.19;86.81
73501;BME280;61721;42.206;25.320;2023-01-10T01:35:03;99205.00;;;6.52;84.61
73501;BME280;61721;42.206;25.320;2023-01-10T01:37:30;99215.81;;;7.02;82.51
73501;BME280;61721;42.206;25.320;2023-01-10T01:39:58;99207.72;;;6.82;82.85
73501;BME280;61721;42.206;25.320;2023-01-10T01:42:27;99210.63;;;7.21;80.69
73501;BME280;61721;42.206;25.320;2023-01-10T01:48:18;99216.94;;;6.78;82.04
73501;BME280;61721;42.206;25.320;2023-01-10T01:50:51;99211.75;;;6.98;81.24
73501;BME280;61721;42.206;25.320;2023-01-10T01:53:23;99218.13;;;6.85;81.67
73501;BME280;61721;42.206;25.320;2023-01-10T01:55:53;99219.78;;;6.45;84.04
73501;BME280;61721;42.206;25.320;2023-01-10T01:58:25;99206.53;;;6.96;81.92
73501;BME280;61721;42.206;25.320;2023-01-10T02:00:55;99216.94;;;7.29;79.54
73501;BME280;61721;42.206;25.320;2023-01-10T02:03:25;99211.34;;;7.32;79.18
73501;BME280;61721;42.206;25.320;2023-01-10T02:05:52;99205.53;;;6.87;80.50
73501;BME280;61721;42.206;25.320;2023-01-10T02:08:20;99195.84;;;7.47;79.22
73501;BME280;61721;42.206;25.320;2023-01-10T02:10:51;99189.00;;;7.45;79.31
73501;BME280;61721;42.206;25.320;2023-01-10T02:13:22;99174.97;;;6.82;82.10
73501;BME280;61721;42.206;25.320;2023-01-10T02:15:51;99173.88;;;6.84;82.31
73501;BME280;61721;42.206;25.320;2023-01-10T02:18:19;99168.13;;;6.79;81.19
73501;BME280;61721;42.206;25.320;2023-01-10T02:21:06;99167.97;;;6.81;82.61
73501;BME280;61721;42.206;25.320;2023-01-10T02:32:58;99159.63;;;6.44;83.58
73501;BME280;61721;42.206;25.320;2023-01-10T02:35:52;99150.94;;;6.42;83.66
73501;BME280;61721;42.206;25.320;2023-01-10T02:38:34;99143.28;;;6.28;84.27
73501;BME280;61721;42.206;25.320;2023-01-10T02:41:10;99141.72;;;6.46;83.94
73501;BME280;61721;42.206;25.320;2023-01-10T02:43:45;99131.38;;;6.43;84.78
73501;BME280;61721;42.206;25.320;2023-01-10T02:46:16;99129.41;;;6.45;84.20
73501;BME280;61721;42.206;25.320;2023-01-10T02:48:51;99125.41;;;6.81;83.79
73501;BME280;61721;42.206;25.320;2023-01-10T02:51:20;99121.69;;;6.42;84.38
73501;BME280;61721;42.206;25.320;2023-01-10T02:53:51;99121.22;;;6.78;83.77
73501;BME280;61721;42.206;25.320;2023-01-10T02:56:48;99116.19;;;6.75;83.19
73501;BME280;61721;42.206;25.320;2023-01-10T02:59:30;99113.69;;;6.83;83.49
73501;BME280;61721;42.206;25.320;2023-01-10T03:02:07;99124.72;;;7.09;82.30
73501;BME280;61721;42.206;25.320;2023-01-10T03:04:43;99118.72;;;6.86;82.85
73501;BME280;61721;42.206;25.320;2023-01-10T03:07:20;99124.47;;;6.61;83.88
73501;BME280;61721;42.206;25.320;2023-01-10T03:09:55;99118.59;;;6.58;85.11
73501;BME280;61721;42.206;25.320;2023-01-10T03:12:28;99115.41;;;6.43;85.02
73501;BME280;61721;42.206;25.320;2023-01-10T03:14:58;99120.22;;;6.49;84.96
73501;BME280;61721;42.206;25.320;2023-01-10T03:17:29;99112.25;;;6.49;84.37
73501;BME280;61721;42.206;25.320;2023-01-10T03:20:01;99108.22;;;6.55;84.47
73501;BME280;61721;42.206;25.320;2023-01-10T03:22:30;99100.88;;;6.47;84.66
73501;BME280;61721;42.206;25.320;2023-01-10T03:25:00;99129.34;;;6.86;84.15
73501;BME280;61721;42.206;25.320;2023-01-10T03:27:35;99120.47;;;7.07;81.93
73501;BME280;61721;42.206;25.320;2023-01-10T03:30:12;99113.34;;;7.07;82.09
73501;BME280;61721;42.206;25.320;2023-01-10T03:32:44;99110.13;;;7.04;82.11
73501;BME280;61721;42.206;25.320;2023-01-10T03:35:14;99108.03;;;6.26;84.89
73501;BME280;61721;42.206;25.320;2023-01-10T03:37:46;99101.72;;;6.48;85.19
73501;BME280;61721;42.206;25.320;2023-01-10T03:40:18;99106.25;;;6.57;83.81
73501;BME280;61721;42.206;25.320;2023-01-10T03:42:54;99102.22;;;6.62;84.01
73501;BME280;61721;42.206;25.320;2023-01-10T03:45:45;99111.75;;;6.85;83.99
73501;BME280;61721;42.206;25.320;2023-01-10T03:48:17;99108.72;;;7.00;82.20
73501;BME280;61721;42.206;25.320;2023-01-10T03:50:50;99100.56;;;7.01;81.33
73501;BME280;61721;42.206;25.320;2023-01-10T03:53:18;99092.16;;;6.66;82.69
73501;BME280;61721;42.206;25.320;2023-01-10T03:55:45;99089.03;;;6.30;85.51
73501;BME280;61721;42.206;25.320;2023-01-10T03:58:12;99090.09;;;6.39;84.79
73501;BME280;61721;42.206;25.320;2023-01-10T04:00:41;99105.56;;;6.34;85.83
73501;BME280;61721;42.206;25.320;2023-01-10T04:03:09;99097.19;;;6.59;85.13
73501;BME280;61721;42.206;25.320;2023-01-10T04:05:36;99096.75;;;6.84;83.37
73501;BME280;61721;42.206;25.320;2023-01-10T04:08:05;99091.53;;;7.13;82.66
73501;BME280;61721;42.206;25.320;2023-01-10T04:10:32;99086.44;;;7.41;80.88
73501;BME280;61721;42.206;25.320;2023-01-10T04:12:59;99074.63;;;7.24;81.67
73501;BME280;61721;42.206;25.320;2023-01-10T04:15:27;99073.66;;;7.25;81.70
73501;BME280;61721;42.206;25.320;2023-01-10T04:17:55;99074.69;;;6.63;84.13
73501;BME280;61721;42.206;25.320;2023-01-10T04:20:22;99064.03;;;6.63;84.21
73501;BME280;61721;42.206;25.320;2023-01-10T04:22:53;99067.34;;;7.26;82.28
73501;BME280;61721;42.206;25.320;2023-01-10T04:25:22;99057.50;;;7.17;82.98
73501;BME280;61721;42.206;25.320;2023-01-10T04:27:50;99052.34;;;7.25;82.14
73501;BME280;61721;42.206;25.320;2023-01-10T04:30:18;99046.38;;;7.61;80.66
73501;BME280;61721;42.206;25.320;2023-01-10T04:32:47;99043.41;;;7.26;81.81
73501;BME280;61721;42.206;25.320;2023-01-10T04:35:14;99065.53;;;6.86;84.12
73501;BME280;61721;42.206;25.320;2023-01-10T04:37:42;99048.84;;;7.24;82.54
73501;BME280;61721;42.206;25.320;2023-01-10T04:40:10;99052.19;;;7.17;82.06
73501;BME280;61721;42.206;25.320;2023-01-10T04:42:40;99042.09;;;7.11;83.06
73501;BME280;61721;42.206;25.320;2023-01-10T04:45:08;99063.63;;;6.98;84.21
73501;BME280;61721;42.206;25.320;2023-01-10T04:47:38;99059.50;;;7.24;83.77
73501;BME280;61721;42.206;25.320;2023-01-10T04:50:05;99058.34;;;7.17;83.61
73501;BME280;61721;42.206;25.320;2023-01-10T04:52:32;99044.94;;;7.38;83.20
73501;BME280;61721;42.206;25.320;2023-01-10T04:54:59;99037.69;;;7.59;81.93
73501;BME280;61721;42.206;25.320;2023-01-10T04:57:27;99036.69;;;7.41;83.03
73501;BME280;61721;42.206;25.320;2023-01-10T04:59:55;99048.03;;;7.43;83.17
73501;BME280;61721;42.206;25.320;2023-01-10T05:02:22;99044.94;;;7.48;83.26
73501;BME280;61721;42.206;25.320;2023-01-10T05:04:49;99029.25;;;7.54;82.90
73501;BME280;61721;42.206;25.320;2023-01-10T05:07:16;99030.38;;;7.42;83.56
73501;BME280;61721;42.206;25.320;2023-01-10T05:09:44;99025.22;;;7.50;82.56
73501;BME280;61721;42.206;25.320;2023-01-10T05:12:11;99032.78;;;7.55;82.34
73501;BME280;61721;42.206;25.320;2023-01-10T05:14:38;99028.41;;;7.44;83.42
73501;BME280;61721;42.206;25.320;2023-01-10T05:17:07;99025.88;;;7.52;82.88
73501;BME280;61721;42.206;25.320;2023-01-10T05:19:34;99018.06;;;7.60;81.77
73501;BME280;61721;42.206;25.320;2023-01-10T05:22:01;99028.41;;;7.25;83.68
73501;BME280;61721;42.206;25.320;2023-01-10T05:24:28;99036.41;;;7.63;82.80
73501;BME280;61721;42.206;25.320;2023-01-10T05:26:55;99025.03;;;7.32;83.90
73501;BME280;61721;42.206;25.320;2023-01-10T05:29:25;99009.22;;;7.41;84.35
73501;BME280;61721;42.206;25.320;2023-01-10T05:31:52;99011.72;;;7.42;83.68
73501;BME280;61721;42.206;25.320;2023-01-10T05:34:21;99006.00;;;7.47;83.83
73501;BME280;61721;42.206;25.320;2023-01-10T05:36:48;99010.88;;;7.32;85.01
73501;BME280;61721;42.206;25.320;2023-01-10T05:39:15;99010.75;;;7.43;84.92
73501;BME280;61721;42.206;25.320;2023-01-10T05:41:43;99011.34;;;7.56;83.88
73501;BME280;61721;42.206;25.320;2023-01-10T05:44:10;99003.19;;;7.67;84.41
73501;BME280;61721;42.206;25.320;2023-01-10T05:46:37;98987.50;;;7.64;84.36
73501;BME280;61721;42.206;25.320;2023-01-10T05:49:04;98980.78;;;7.60;85.02
73501;BME280;61721;42.206;25.320;2023-01-10T05:51:33;98991.13;;;7.83;84.66
73501;BME280;61721;42.206;25.320;2023-01-10T05:54:01;98970.66;;;7.73;84.98
73501;BME280;61721;42.206;25.320;2023-01-10T05:56:28;98959.72;;;7.67;85.29
73501;BME280;61721;42.206;25.320;2023-01-10T05:58:55;98960.31;;;7.61;85.94
73501;BME280;61721;42.206;25.320;2023-01-10T06:01:23;98962.25;;;7.68;85.50
73501;BME280;61721;42.206;25.320;2023-01-10T06:03:50;98959.88;;;7.75;84.77
73501;BME280;61721;42.206;25.320;2023-01-10T06:06:17;98951.34;;;7.71;85.24
73501;BME280;61721;42.206;25.320;2023-01-10T06:08:46;98965.22;;;7.65;84.99
73501;BME280;61721;42.206;25.320;2023-01-10T06:11:13;98964.94;;;7.68;85.85
73501;BME280;61721;42.206;25.320;2023-01-10T06:13:40;98979.22;;;7.67;85.58
73501;BME280;61721;42.206;25.320;2023-01-10T06:16:07;98986.22;;;7.68;85.75
73501;BME280;61721;42.206;25.320;2023-01-10T06:18:34;98984.97;;;7.72;85.87
73501;BME280;61721;42.206;25.320;2023-01-10T06:21:01;98995.50;;;7.64;85.53
73501;BME280;61721;42.206;25.320;2023-01-10T06:23:29;98980.47;;;7.92;84.91
73501;BME280;61721;42.206;25.320;2023-01-10T06:25:58;98986.31;;;8.05;83.81
73501;BME280;61721;42.206;25.320;2023-01-10T06:28:25;98975.13;;;7.83;84.89
73501;BME280;61721;42.206;25.320;2023-01-10T06:30:52;98969.00;;;7.82;85.23
73501;BME280;61721;42.206;25.320;2023-01-10T06:33:20;98959.41;;;7.99;85.00
73501;BME280;61721;42.206;25.320;2023-01-10T06:35:47;98965.44;;;8.01;85.00
73501;BME280;61721;42.206;25.320;2023-01-10T06:38:14;98957.94;;;8.24;84.81
73501;BME280;61721;42.206;25.320;2023-01-10T06:40:41;98949.84;;;8.15;84.81
73501;BME280;61721;42.206;25.320;2023-01-10T06:43:10;98946.97;;;8.36;84.95
73501;BME280;61721;42.206;25.320;2023-01-10T06:45:37;98958.50;;;8.27;85.64
73501;BME280;61721;42.206;25.320;2023-01-10T06:48:04;98956.50;;;8.39;85.85
73501;BME280;61721;42.206;25.320;2023-01-10T06:50:32;98950.50;;;8.27;86.26
73501;BME280;61721;42.206;25.320;2023-01-10T06:53:00;98940.50;;;8.29;85.66
73501;BME280;61721;42.206;25.320;2023-01-10T06:55:28;98937.84;;;8.39;85.77
73501;BME280;61721;42.206;25.320;2023-01-10T06:57:55;98944.31;;;8.36;85.93
73501;BME280;61721;42.206;25.320;2023-01-10T07:00:25;98954.31;;;8.15;86.75
73501;BME280;61721;42.206;25.320;2023-01-10T07:02:52;98950.63;;;8.35;86.45
73501;BME280;61721;42.206;25.320;2023-01-10T07:05:21;98944.78;;;8.22;87.07
73501;BME280;61721;42.206;25.320;2023-01-10T07:07:48;98939.66;;;8.48;86.07
73501;BME280;61721;42.206;25.320;2023-01-10T07:10:17;98938.97;;;8.36;86.65
73501;BME280;61721;42.206;25.320;2023-01-10T07:12:44;98936.34;;;8.54;86.29
73501;BME280;61721;42.206;25.320;2023-01-10T07:15:11;98931.03;;;8.54;86.36
73501;BME280;61721;42.206;25.320;2023-01-10T07:17:40;98925.63;;;8.64;85.98
73501;BME280;61721;42.206;25.320;2023-01-10T07:20:11;98924.97;;;8.62;85.91
73501;BME280;61721;42.206;25.320;2023-01-10T07:22:38;98936.69;;;8.69;86.37
73501;BME280;61721;42.206;25.320;2023-01-10T07:25:08;98933.38;;;8.67;86.23
73501;BME280;61721;42.206;25.320;2023-01-10T07:27:35;98933.44;;;8.75;85.78
73501;BME280;61721;42.206;25.320;2023-01-10T07:30:08;98921.66;;;8.77;85.97
73501;BME280;61721;42.206;25.320;2023-01-10T07:32:36;98917.38;;;8.84;85.48
73501;BME280;61721;42.206;25.320;2023-01-10T07:35:05;98916.00;;;8.80;86.04
73501;BME280;61721;42.206;25.320;2023-01-10T07:37:32;98915.94;;;8.90;85.75
73501;BME280;61721;42.206;25.320;2023-01-10T07:40:00;98896.09;;;8.75;86.51
73501;BME280;61721;42.206;25.320;2023-01-10T07:42:27;98887.75;;;8.87;85.87
73501;BME280;61721;42.206;25.320;2023-01-10T07:44:55;98896.13;;;8.92;85.39
73501;BME280;61721;42.206;25.320;2023-01-10T07:47:22;98889.94;;;8.92;85.48
73501;BME280;61721;42.206;25.320;2023-01-10T07:49:49;98885.28;;;8.94;85.69
73501;BME280;61721;42.206;25.320;2023-01-10T07:52:18;98885.81;;;8.80;85.81
73501;BME280;61721;42.206;25.320;2023-01-10T07:54:45;98868.88;;;8.89;85.26
73501;BME280;61721;42.206;25.320;2023-01-10T07:57:12;98873.78;;;9.11;84.52
73501;BME280;61721;42.206;25.320;2023-01-10T07:59:40;98861.41;;;9.10;85.14
73501;BME280;61721;42.206;25.320;2023-01-10T08:02:08;98852.75;;;9.08;84.97
73501;BME280;61721;42.206;25.320;2023-01-10T08:04:36;98861.91;;;8.88;85.71
73501;BME280;61721;42.206;25.320;2023-01-10T08:07:04;98868.81;;;8.81;86.61
73501;BME280;61721;42.206;25.320;2023-01-10T08:09:32;98884.91;;;8.89;86.59
73501;BME280;61721;42.206;25.320;2023-01-10T08:12:00;98879.06;;;9.03;85.96
73501;BME280;61721;42.206;25.320;2023-01-10T08:14:27;98887.81;;;9.13;85.79
73501;BME280;61721;42.206;25.320;2023-01-10T08:16:54;98871.44;;;9.08;86.04
73501;BME280;61721;42.206;25.320;2023-01-10T08:19:21;98877.34;;;9.20;85.86
73501;BME280;61721;42.206;25.320;2023-01-10T08:21:48;98868.22;;;9.22;85.50
73501;BME280;61721;42.206;25.320;2023-01-10T08:24:15;98867.59;;;9.28;84.98
73501;BME280;61721;42.206;25.320;2023-01-10T08:26:44;98852.16;;;9.40;85.12
73501;BME280;61721;42.206;25.320;2023-01-10T08:29:11;98846.44;;;9.35;85.07
73501;BME280;61721;42.206;25.320;2023-01-10T08:31:39;98853.31;;;9.37;84.96
73501;BME280;61721;42.206;25.320;2023-01-10T08:34:07;98866.53;;;9.39;84.67
73501;BME280;61721;42.206;25.320;2023-01-10T08:36:34;98843.25;;;9.31;84.75
73501;BME280;61721;42.206;25.320;2023-01-10T08:39:01;98833.31;;;9.41;85.19
73501;BME280;61721;42.206;25.320;2023-01-10T08:41:29;98825.38;;;9.50;84.45
73501;BME280;61721;42.206;25.320;2023-01-10T08:43:58;98820.84;;;9.50;84.90
73501;BME280;61721;42.206;25.320;2023-01-10T08:46:25;98818.16;;;9.50;85.44
73501;BME280;61721;42.206;25.320;2023-01-10T08:48:52;98808.06;;;9.62;84.71
73501;BME280;61721;42.206;25.320;2023-01-10T08:51:20;98807.81;;;9.47;85.08
73501;BME280;61721;42.206;25.320;2023-01-10T08:53:47;98808.22;;;9.60;84.78
73501;BME280;61721;42.206;25.320;2023-01-10T08:56:14;98794.41;;;9.65;85.82
73501;BME280;61721;42.206;25.320;2023-01-10T08:58:41;98788.72;;;9.34;86.67
73501;BME280;61721;42.206;25.320;2023-01-10T09:01:12;98796.53;;;9.35;87.16
73501;BME280;61721;42.206;25.320;2023-01-10T09:03:39;98784.63;;;9.48;86.56
73501;BME280;61721;42.206;25.320;2023-01-10T09:06:07;98769.91;;;9.43;86.91
73501;BME280;61721;42.206;25.320;2023-01-10T09:08:35;98779.06;;;9.41;87.23
73501;BME280;61721;42.206;25.320;2023-01-10T09:11:02;98771.13;;;9.49;87.11
73501;BME280;61721;42.206;25.320;2023-01-10T09:13:30;98786.59;;;9.45;87.45
73501;BME280;61721;42.206;25.320;2023-01-10T09:15:58;98762.41;;;9.47;87.95
73501;BME280;61721;42.206;25.320;2023-01-10T09:18:27;98745.53;;;9.38;88.40
73501;BME280;61721;42.206;25.320;2023-01-10T09:20:54;98754.97;;;9.59;88.23
73501;BME280;61721;42.206;25.320;2023-01-10T09:23:22;98752.53;;;9.39;88.02
73501;BME280;61721;42.206;25.320;2023-01-10T09:25:51;98764.84;;;9.32;88.62
73501;BME280;61721;42.206;25.320;2023-01-10T09:28:19;98754.66;;;9.36;89.29
73501;BME280;61721;42.206;25.320;2023-01-10T09:30:46;98740.31;;;9.37;88.73
73501;BME280;61721;42.206;25.320;2023-01-10T09:33:14;98730.81;;;9.34;89.18
73501;BME280;61721;42.206;25.320;2023-01-10T09:35:42;98727.19;;;9.43;88.97
73501;BME280;61721;42.206;25.320;2023-01-10T09:38:11;98727.34;;;9.42;88.38
73501;BME280;61721;42.206;25.320;2023-01-10T09:41:01;98737.06;;;9.25;89.45
73501;BME280;61721;42.206;25.320;2023-01-10T09:43:42;98714.81;;;9.42;89.42
73501;BME280;61721;42.206;25.320;2023-01-10T09:46:16;98742.63;;;9.32;89.53
73501;BME280;61721;42.206;25.320;2023-01-10T09:48:50;98744.81;;;9.36;89.73
73501;BME280;61721;42.206;25.320;2023-01-10T09:51:31;98730.00;;;9.42;89.05
73501;BME280;61721;42.206;25.320;2023-01-10T09:54:02;98713.41;;;9.30;89.79
73501;BME280;61721;42.206;25.320;2023-01-10T09:56:32;98701.44;;;9.34;90.22
73501;BME280;61721;42.206;25.320;2023-01-10T09:59:00;98698.88;;;9.25;90.68
73501;BME280;61721;42.206;25.320;2023-01-10T10:01:33;98680.03;;;9.26;90.07
73501;BME280;61721;42.206;25.320;2023-01-10T10:04:16;98677.50;;;9.25;90.35
73501;BME280;61721;42.206;25.320;2023-01-10T10:06:49;98683.41;;;9.36;90.28
73501;BME280;61721;42.206;25.320;2023-01-10T10:09:20;98668.75;;;9.40;89.38
73501;BME280;61721;42.206;25.320;2023-01-10T10:12:25;98659.19;;;9.30;90.01
73501;BME280;61721;42.206;25.320;2023-01-10T10:15:06;98661.69;;;9.31;89.57
73501;BME280;61721;42.206;25.320;2023-01-10T10:18:14;98671.41;;;9.40;89.98
73501;BME280;61721;42.206;25.320;2023-01-10T10:21:18;98695.31;;;8.90;89.42
73501;BME280;61721;42.206;25.320;2023-01-10T10:26:52;98686.44;;;7.02;90.77
73501;BME280;61721;42.206;25.320;2023-01-10T10:29:37;98676.22;;;7.07;90.38
73501;BME280;61721;42.206;25.320;2023-01-10T10:32:48;98678.06;;;6.97;89.83
73501;BME280;61721;42.206;25.320;2023-01-10T10:35:26;98676.72;;;6.73;89.39
73501;BME280;61721;42.206;25.320;2023-01-10T10:37:57;98669.78;;;6.34;89.70
73501;BME280;61721;42.206;25.320;2023-01-10T10:40:31;98666.41;;;6.70;88.62
73501;BME280;61721;42.206;25.320;2023-01-10T10:43:10;98664.31;;;6.64;88.60
73501;BME280;61721;42.206;25.320;2023-01-10T10:45:43;98655.63;;;6.62;88.43
73501;BME280;61721;42.206;25.320;2023-01-10T10:48:15;98657.31;;;6.63;88.12
73501;BME280;61721;42.206;25.320;2023-01-10T10:50:55;98651.53;;;6.77;87.54
73501;BME280;61721;42.206;25.320;2023-01-10T10:53:24;98642.84;;;6.85;86.85
73501;BME280;61721;42.206;25.320;2023-01-10T10:55:53;98626.72;;;7.51;85.19
73501;BME280;61721;42.206;25.320;2023-01-10T10:58:21;98618.25;;;7.10;85.23
73501;BME280;61721;42.206;25.320;2023-01-10T11:00:52;98614.84;;;7.45;84.23
73501;BME280;61721;42.206;25.320;2023-01-10T11:03:30;98624.19;;;7.22;84.98
73501;BME280;61721;42.206;25.320;2023-01-10T11:06:02;98625.13;;;7.58;84.85
73501;BME280;61721;42.206;25.320;2023-01-10T11:08:34;98628.53;;;7.50;83.79
73501;BME280;61721;42.206;25.320;2023-01-10T11:11:09;98611.47;;;7.43;84.07
73501;BME280;61721;42.206;25.320;2023-01-10T11:13:46;98613.66;;;7.30;84.86
73501;BME280;61721;42.206;25.320;2023-01-10T11:16:28;98615.63;;;7.55;84.08
73501;BME280;61721;42.206;25.320;2023-01-10T11:19:16;98607.56;;;7.83;83.14
73501;BME280;61721;42.206;25.320;2023-01-10T11:21:50;98610.41;;;7.36;85.34
73501;BME280;61721;42.206;25.320;2023-01-10T11:24:25;98603.22;;;7.64;84.19
73501;BME280;61721;42.206;25.320;2023-01-10T11:26:55;98610.75;;;7.23;85.87
73501;BME280;61721;42.206;25.320;2023-01-10T11:29:26;98619.13;;;7.28;85.28
73501;BME280;61721;42.206;25.320;2023-01-10T11:31:55;98613.38;;;7.06;86.91
73501;BME280;61721;42.206;25.320;2023-01-10T11:34:25;98589.13;;;7.09;86.53
73501;BME280;61721;42.206;25.320;2023-01-10T11:36:57;98582.63;;;6.94;87.27
73501;BME280;61721;42.206;25.320;2023-01-10T11:39:27;98579.69;;;7.42;85.75
73501;BME280;61721;42.206;25.320;2023-01-10T11:41:56;98577.69;;;6.99;87.27
73501;BME280;61721;42.206;25.320;2023-01-10T11:44:25;98586.41;;;7.18;85.71
73501;BME280;61721;42.206;25.320;2023-01-10T11:46:55;98577.72;;;7.16;86.17
73501;BME280;61721;42.206;25.320;2023-01-10T11:49:27;98595.09;;;7.20;85.16
73501;BME280;61721;42.206;25.320;2023-01-10T11:52:00;98582.03;;;7.00;86.05
73501;BME280;61721;42.206;25.320;2023-01-10T11:54:29;98557.00;;;7.20;86.04
73501;BME280;61721;42.206;25.320;2023-01-10T11:57:02;98536.22;;;7.51;85.34
73501;BME280;61721;42.206;25.320;2023-01-10T11:59:30;98523.84;;;7.32;84.20
73501;BME280;61721;42.206;25.320;2023-01-10T12:26:29;98530.75;;;6.80;88.86
73501;BME280;61721;42.206;25.320;2023-01-10T12:29:00;98532.00;;;6.85;88.25
73501;BME280;61721;42.206;25.320;2023-01-10T12:31:29;98528.59;;;6.56;88.01
73501;BME280;61721;42.206;25.320;2023-01-10T12:34:04;98533.81;;;6.48;88.89
73501;BME280;61721;42.206;25.320;2023-01-10T12:36:42;98553.69;;;6.44;89.32
73501;BME280;61721;42.206;25.320;2023-01-10T12:39:14;98573.28;;;6.43;89.00
73501;BME280;61721;42.206;25.320;2023-01-10T12:41:52;98600.97;;;6.31;89.71
73501;BME280;61721;42.206;25.320;2023-01-10T12:44:41;98601.84;;;6.22;89.36
73501;BME280;61721;42.206;25.320;2023-01-10T12:47:24;98574.75;;;6.09;89.42
73501;BME280;61721;42.206;25.320;2023-01-10T12:49:58;98567.16;;;6.33;88.07
73501;BME280;61721;42.206;25.320;2023-01-10T12:52:30;98564.91;;;6.28;88.76
73501;BME280;61721;42.206;25.320;2023-01-10T12:54:59;98568.03;;;5.95;89.36
73501;BME280;61721;42.206;25.320;2023-01-10T12:57:30;98580.28;;;6.25;88.40
73501;BME280;61721;42.206;25.320;2023-01-10T13:00:01;98593.84;;;6.31;87.84
73501;BME280;61721;42.206;25.320;2023-01-10T13:02:37;98597.66;;;6.29;88.53
73501;BME280;61721;42.206;25.320;2023-01-10T13:05:06;98571.47;;;6.43;87.04
73501;BME280;61721;42.206;25.320;2023-01-10T13:07:40;98576.41;;;6.10;87.90
73501;BME280;61721;42.206;25.320;2023-01-10T13:10:13;98553.69;;;6.44;88.05
73501;BME280;61721;42.206;25.320;2023-01-10T13:12:47;98566.72;;;6.84;87.30
73501;BME280;61721;42.206;25.320;2023-01-10T13:15:20;98568.81;;;6.43;87.27
73501;BME280;61721;42.206;25.320;2023-01-10T13:17:51;98569.09;;;6.31;88.37
73501;BME280;61721;42.206;25.320;2023-01-10T13:20:26;98572.13;;;6.55;86.85
73501;BME280;61721;42.206;25.320;2023-01-10T13:22:54;98564.69;;;7.23;84.39
73501;BME280;61721;42.206;25.320;2023-01-10T13:25:24;98550.19;;;7.53;82.68
73501;BME280;61721;42.206;25.320;2023-01-10T13:27:57;98550.13;;;7.45;83.02
73501;BME280;61721;42.206;25.320;2023-01-10T13:30:29;98556.81;;;7.04;84.04
73501;BME280;61721;42.206;25.320;2023-01-10T13:33:02;98553.75;;;7.44;83.90
73501;BME280;61721;42.206;25.320;2023-01-10T13:35:39;98533.47;;;7.60;82.84
73501;BME280;61721;42.206;25.320;2023-01-10T13:38:16;98552.78;;;7.45;82.99
73501;BME280;61721;42.206;25.320;2023-01-10T13:40:59;98549.06;;;7.55;82.79
73501;BME280;61721;42.206;25.320;2023-01-10T13:43:37;98553.38;;;7.21;84.27
73501;BME280;61721;42.206;25.320;2023-01-10T13:46:33;98567.09;;;7.16;84.77
73501;BME280;61721;42.206;25.320;2023-01-10T13:52:38;98608.09;;;6.86;84.59
73501;BME280;61721;42.206;25.320;2023-01-10T13:55:27;98616.03;;;6.96;85.64
73501;BME280;61721;42.206;25.320;2023-01-10T13:58:03;98605.22;;;7.80;83.22
73501;BME280;61721;42.206;25.320;2023-01-10T14:00:44;98608.31;;;7.03;85.42
73501;BME280;61721;42.206;25.320;2023-01-10T14:03:48;98622.72;;;7.37;84.58